SBOSBO LCA / LCLK
Speedbird OnlineSpeedbird Online LCA / LCLK

Larnaca International Airport
14:48 15.8°C

Location Larnaca, Cyprus
Latitude: 34.875099182128906
Longitude: 33.624900817871094
Web Airport Website | Wikipedia
Altitude 2 Meter / 8 Feet
Distance 3,241 KM / 2,014 Miles
from London.
Time Zone UTC +2 hours (Asia/Nicosia)
Codes IATA: LCA
ICAO: LCLK
Currency £1 equals EUR 1.14
Runways
RunwayLength (m)Surface
042994Asphalt
222994Asphalt
Radio
TypeDescriptionFrequency
APPAPP121.2
ATISATIS126.55
TWRTWR119.4
Live ATC
METAR LCLK 311230Z 29014KT 9999 FEW025 SCT060 16/06 Q1004 NOSIG
TAF TAF LCLK 311130Z 3112/0112 32017KT 9999 SCT030 BECMG 3114/3117 32007KT PROB40 TEMPO 0106/0112 5000 RA TS BKN020 FEW025CB PROB30 TEMPO 0108/0112 VRB18G28KT 2000 TSRA BKN022CB
Weather As Of 31 Jan 2023 14:48
Description Scattered clouds
Wind 26 km/h from West (290°)
Cloud Cover 40%
Precipitation Rain: none, Snow: none
Sunrise 06:45
Sunset 17:12
Lounges Aspire Aphrodite Lounge , Main
Rotations During the last 90 days there were
171 flights from LHR
171 flights to LHR



Support Speedbird Online

© 2017-2023 Speedbird Online